sensor_id;sensor_type;location;lat;lon;timestamp;P1;durP1;ratioP1;P2;durP2;ratioP2
70049;SDS011;57391;51.306;22.680;2023-05-29T00:01:58;7.70;;;2.90;;
70049;SDS011;57391;51.306;22.680;2023-05-29T00:04:25;6.10;;;2.60;;
70049;SDS011;57391;51.306;22.680;2023-05-29T00:06:52;9.10;;;3.10;;
70049;SDS011;57391;51.306;22.680;2023-05-29T00:09:19;6.00;;;3.00;;
70049;SDS011;57391;51.306;22.680;2023-05-29T00:11:46;7.70;;;2.80;;
70049;SDS011;57391;51.306;22.680;2023-05-29T00:14:18;5.50;;;2.60;;
70049;SDS011;57391;51.306;22.680;2023-05-29T00:16:46;7.80;;;3.10;;
70049;SDS011;57391;51.306;22.680;2023-05-29T00:19:14;6.20;;;2.60;;
70049;SDS011;57391;51.306;22.680;2023-05-29T00:21:43;6.80;;;2.30;;
70049;SDS011;57391;51.306;22.680;2023-05-29T00:24:10;7.00;;;2.60;;
70049;SDS011;57391;51.306;22.680;2023-05-29T00:26:37;5.20;;;2.50;;
70049;SDS011;57391;51.306;22.680;2023-05-29T00:29:04;6.40;;;2.70;;
70049;SDS011;57391;51.306;22.680;2023-05-29T00:31:33;6.20;;;2.20;;
70049;SDS011;57391;51.306;22.680;2023-05-29T00:34:00;5.40;;;2.30;;
70049;SDS011;57391;51.306;22.680;2023-05-29T00:36:27;5.50;;;2.60;;
70049;SDS011;57391;51.306;22.680;2023-05-29T00:38:56;6.50;;;2.50;;
70049;SDS011;57391;51.306;22.680;2023-05-29T00:41:23;6.20;;;2.60;;
70049;SDS011;57391;51.306;22.680;2023-05-29T00:43:50;5.20;;;2.60;;
70049;SDS011;57391;51.306;22.680;2023-05-29T00:46:17;5.50;;;2.50;;
70049;SDS011;57391;51.306;22.680;2023-05-29T00:48:47;5.30;;;2.30;;
70049;SDS011;57391;51.306;22.680;2023-05-29T00:51:15;5.80;;;2.50;;
70049;SDS011;57391;51.306;22.680;2023-05-29T00:53:43;5.60;;;2.50;;
70049;SDS011;57391;51.306;22.680;2023-05-29T00:56:12;5.20;;;2.30;;
70049;SDS011;57391;51.306;22.680;2023-05-29T00:58:41;4.80;;;2.50;;
70049;SDS011;57391;51.306;22.680;2023-05-29T01:01:09;5.30;;;2.50;;
70049;SDS011;57391;51.306;22.680;2023-05-29T01:03:38;5.60;;;2.60;;
70049;SDS011;57391;51.306;22.680;2023-05-29T01:06:05;4.60;;;2.50;;
70049;SDS011;57391;51.306;22.680;2023-05-29T01:08:33;5.00;;;2.40;;
70049;SDS011;57391;51.306;22.680;2023-05-29T01:11:13;5.60;;;2.80;;
70049;SDS011;57391;51.306;22.680;2023-05-29T01:14:04;5.60;;;2.60;;
70049;SDS011;57391;51.306;22.680;2023-05-29T01:16:40;5.80;;;2.70;;
70049;SDS011;57391;51.306;22.680;2023-05-29T01:22:19;7.00;;;3.00;;
70049;SDS011;57391;51.306;22.680;2023-05-29T01:25:11;5.60;;;2.30;;
70049;SDS011;57391;51.306;22.680;2023-05-29T01:27:48;5.20;;;2.40;;
70049;SDS011;57391;51.306;22.680;2023-05-29T01:30:18;7.10;;;2.60;;
70049;SDS011;57391;51.306;22.680;2023-05-29T01:32:47;5.80;;;2.40;;
70049;SDS011;57391;51.306;22.680;2023-05-29T01:35:15;6.80;;;2.70;;
70049;SDS011;57391;51.306;22.680;2023-05-29T01:37:42;5.50;;;2.40;;
70049;SDS011;57391;51.306;22.680;2023-05-29T01:40:09;7.60;;;2.60;;
70049;SDS011;57391;51.306;22.680;2023-05-29T01:42:37;5.30;;;2.70;;
70049;SDS011;57391;51.306;22.680;2023-05-29T01:45:05;6.10;;;2.60;;
70049;SDS011;57391;51.306;22.680;2023-05-29T01:47:34;5.70;;;2.50;;
70049;SDS011;57391;51.306;22.680;2023-05-29T01:50:03;5.70;;;2.60;;
70049;SDS011;57391;51.306;22.680;2023-05-29T01:52:31;5.30;;;2.60;;
70049;SDS011;57391;51.306;22.680;2023-05-29T01:54:59;4.80;;;2.40;;
70049;SDS011;57391;51.306;22.680;2023-05-29T01:57:26;5.60;;;2.50;;
70049;SDS011;57391;51.306;22.680;2023-05-29T01:59:54;5.60;;;2.50;;
70049;SDS011;57391;51.306;22.680;2023-05-29T02:02:22;6.50;;;2.60;;
70049;SDS011;57391;51.306;22.680;2023-05-29T02:04:51;4.20;;;2.10;;
70049;SDS011;57391;51.306;22.680;2023-05-29T02:07:18;5.00;;;2.30;;
70049;SDS011;57391;51.306;22.680;2023-05-29T02:09:46;4.80;;;2.40;;
70049;SDS011;57391;51.306;22.680;2023-05-29T02:12:13;5.30;;;2.70;;
70049;SDS011;57391;51.306;22.680;2023-05-29T02:14:40;6.10;;;2.40;;
70049;SDS011;57391;51.306;22.680;2023-05-29T02:17:11;5.20;;;2.00;;
70049;SDS011;57391;51.306;22.680;2023-05-29T02:19:38;4.10;;;2.20;;
70049;SDS011;57391;51.306;22.680;2023-05-29T02:22:05;5.50;;;2.10;;
70049;SDS011;57391;51.306;22.680;2023-05-29T02:24:34;5.10;;;2.00;;
70049;SDS011;57391;51.306;22.680;2023-05-29T02:27:01;6.60;;;2.30;;
70049;SDS011;57391;51.306;22.680;2023-05-29T02:29:29;5.20;;;2.10;;
70049;SDS011;57391;51.306;22.680;2023-05-29T02:31:56;5.10;;;2.20;;
70049;SDS011;57391;51.306;22.680;2023-05-29T02:34:23;4.20;;;2.20;;
70049;SDS011;57391;51.306;22.680;2023-05-29T02:36:51;4.20;;;2.00;;
70049;SDS011;57391;51.306;22.680;2023-05-29T02:39:21;5.40;;;2.10;;
70049;SDS011;57391;51.306;22.680;2023-05-29T02:41:49;5.60;;;2.40;;
70049;SDS011;57391;51.306;22.680;2023-05-29T02:44:16;4.80;;;2.00;;
70049;SDS011;57391;51.306;22.680;2023-05-29T02:46:43;3.90;;;2.10;;
70049;SDS011;57391;51.306;22.680;2023-05-29T02:49:10;6.40;;;2.40;;
70049;SDS011;57391;51.306;22.680;2023-05-29T02:51:37;5.70;;;2.30;;
70049;SDS011;57391;51.306;22.680;2023-05-29T02:54:04;6.80;;;2.10;;
70049;SDS011;57391;51.306;22.680;2023-05-29T02:56:31;4.40;;;2.20;;
70049;SDS011;57391;51.306;22.680;2023-05-29T02:58:58;4.80;;;2.00;;
70049;SDS011;57391;51.306;22.680;2023-05-29T03:01:25;5.50;;;2.20;;
70049;SDS011;57391;51.306;22.680;2023-05-29T03:03:52;4.10;;;2.10;;
70049;SDS011;57391;51.306;22.680;2023-05-29T03:06:19;4.20;;;2.20;;
70049;SDS011;57391;51.306;22.680;2023-05-29T03:08:46;4.20;;;2.20;;
70049;SDS011;57391;51.306;22.680;2023-05-29T03:11:14;7.80;;;3.80;;
70049;SDS011;57391;51.306;22.680;2023-05-29T03:13:42;9.40;;;4.50;;
70049;SDS011;57391;51.306;22.680;2023-05-29T03:16:10;14.20;;;7.40;;
70049;SDS011;57391;51.306;22.680;2023-05-29T03:18:38;16.30;;;8.00;;
70049;SDS011;57391;51.306;22.680;2023-05-29T03:21:06;13.60;;;7.50;;
70049;SDS011;57391;51.306;22.680;2023-05-29T03:23:34;9.80;;;5.30;;
70049;SDS011;57391;51.306;22.680;2023-05-29T03:26:02;9.90;;;4.30;;
70049;SDS011;57391;51.306;22.680;2023-05-29T03:28:31;7.70;;;3.60;;
70049;SDS011;57391;51.306;22.680;2023-05-29T03:30:58;8.50;;;3.80;;
70049;SDS011;57391;51.306;22.680;2023-05-29T03:33:26;6.70;;;3.30;;
70049;SDS011;57391;51.306;22.680;2023-05-29T03:36:31;7.10;;;3.50;;
70049;SDS011;57391;51.306;22.680;2023-05-29T03:38:58;7.70;;;3.40;;
70049;SDS011;57391;51.306;22.680;2023-05-29T03:41:26;8.10;;;3.60;;
70049;SDS011;57391;51.306;22.680;2023-05-29T03:43:53;6.00;;;3.20;;
70049;SDS011;57391;51.306;22.680;2023-05-29T03:46:21;7.40;;;3.10;;
70049;SDS011;57391;51.306;22.680;2023-05-29T03:48:49;6.30;;;3.20;;
70049;SDS011;57391;51.306;22.680;2023-05-29T03:51:16;4.90;;;3.00;;
70049;SDS011;57391;51.306;22.680;2023-05-29T03:53:45;7.00;;;3.00;;
70049;SDS011;57391;51.306;22.680;2023-05-29T03:56:12;5.30;;;3.10;;
70049;SDS011;57391;51.306;22.680;2023-05-29T03:58:40;4.80;;;2.70;;
70049;SDS011;57391;51.306;22.680;2023-05-29T04:01:08;4.90;;;2.50;;
70049;SDS011;57391;51.306;22.680;2023-05-29T04:03:36;8.10;;;3.00;;
70049;SDS011;57391;51.306;22.680;2023-05-29T04:06:05;8.00;;;2.50;;
70049;SDS011;57391;51.306;22.680;2023-05-29T04:08:32;7.60;;;2.40;;
70049;SDS011;57391;51.306;22.680;2023-05-29T04:10:59;9.00;;;2.60;;
70049;SDS011;57391;51.306;22.680;2023-05-29T04:13:29;4.00;;;2.30;;
70049;SDS011;57391;51.306;22.680;2023-05-29T04:15:56;6.20;;;2.70;;
70049;SDS011;57391;51.306;22.680;2023-05-29T04:18:23;7.80;;;2.70;;
70049;SDS011;57391;51.306;22.680;2023-05-29T04:20:54;4.90;;;2.50;;
70049;SDS011;57391;51.306;22.680;2023-05-29T04:23:21;5.20;;;2.70;;
70049;SDS011;57391;51.306;22.680;2023-05-29T04:25:48;5.80;;;2.70;;
70049;SDS011;57391;51.306;22.680;2023-05-29T04:28:23;4.50;;;2.70;;
70049;SDS011;57391;51.306;22.680;2023-05-29T04:30:51;4.50;;;2.60;;
70049;SDS011;57391;51.306;22.680;2023-05-29T04:33:20;8.10;;;2.70;;
70049;SDS011;57391;51.306;22.680;2023-05-29T04:35:49;4.80;;;2.30;;
70049;SDS011;57391;51.306;22.680;2023-05-29T04:38:17;8.60;;;2.50;;
70049;SDS011;57391;51.306;22.680;2023-05-29T04:40:47;5.20;;;2.40;;
70049;SDS011;57391;51.306;22.680;2023-05-29T04:43:16;5.60;;;2.20;;
70049;SDS011;57391;51.306;22.680;2023-05-29T04:46:02;4.50;;;2.00;;
70049;SDS011;57391;51.306;22.680;2023-05-29T04:48:30;7.90;;;2.40;;
70049;SDS011;57391;51.306;22.680;2023-05-29T04:50:58;8.50;;;2.40;;
70049;SDS011;57391;51.306;22.680;2023-05-29T04:53:26;5.60;;;2.50;;
70049;SDS011;57391;51.306;22.680;2023-05-29T04:55:53;5.60;;;2.30;;
70049;SDS011;57391;51.306;22.680;2023-05-29T04:58:20;5.10;;;2.30;;
70049;SDS011;57391;51.306;22.680;2023-05-29T05:00:49;5.70;;;2.10;;
70049;SDS011;57391;51.306;22.680;2023-05-29T05:03:16;6.60;;;2.40;;
70049;SDS011;57391;51.306;22.680;2023-05-29T05:05:44;5.60;;;2.40;;
70049;SDS011;57391;51.306;22.680;2023-05-29T05:08:12;4.60;;;2.40;;
70049;SDS011;57391;51.306;22.680;2023-05-29T05:10:39;7.70;;;2.60;;
70049;SDS011;57391;51.306;22.680;2023-05-29T05:13:06;3.50;;;2.30;;
70049;SDS011;57391;51.306;22.680;2023-05-29T05:15:34;5.30;;;2.40;;
70049;SDS011;57391;51.306;22.680;2023-05-29T05:18:02;5.90;;;2.50;;
70049;SDS011;57391;51.306;22.680;2023-05-29T05:20:30;5.00;;;2.40;;
70049;SDS011;57391;51.306;22.680;2023-05-29T05:22:59;5.40;;;2.30;;
70049;SDS011;57391;51.306;22.680;2023-05-29T05:25:26;4.80;;;2.20;;
70049;SDS011;57391;51.306;22.680;2023-05-29T05:27:53;5.90;;;2.20;;
70049;SDS011;57391;51.306;22.680;2023-05-29T05:30:21;5.50;;;2.20;;
70049;SDS011;57391;51.306;22.680;2023-05-29T05:32:48;4.80;;;2.10;;
70049;SDS011;57391;51.306;22.680;2023-05-29T05:35:16;6.40;;;2.50;;
70049;SDS011;57391;51.306;22.680;2023-05-29T05:37:43;5.40;;;2.10;;
70049;SDS011;57391;51.306;22.680;2023-05-29T05:40:12;6.10;;;2.90;;
70049;SDS011;57391;51.306;22.680;2023-05-29T05:42:49;8.00;;;2.40;;
70049;SDS011;57391;51.306;22.680;2023-05-29T05:45:17;7.40;;;2.40;;
70049;SDS011;57391;51.306;22.680;2023-05-29T05:47:44;6.50;;;2.10;;
70049;SDS011;57391;51.306;22.680;2023-05-29T05:50:12;4.30;;;2.20;;
70049;SDS011;57391;51.306;22.680;2023-05-29T05:52:39;4.90;;;2.20;;
70049;SDS011;57391;51.306;22.680;2023-05-29T05:55:07;5.10;;;2.40;;
70049;SDS011;57391;51.306;22.680;2023-05-29T05:57:35;5.30;;;2.10;;
70049;SDS011;57391;51.306;22.680;2023-05-29T06:00:03;4.00;;;2.10;;
70049;SDS011;57391;51.306;22.680;2023-05-29T06:02:43;4.40;;;2.20;;
70049;SDS011;57391;51.306;22.680;2023-05-29T06:05:14;6.40;;;2.40;;
70049;SDS011;57391;51.306;22.680;2023-05-29T06:07:43;4.50;;;2.20;;
70049;SDS011;57391;51.306;22.680;2023-05-29T06:10:10;5.40;;;2.20;;
70049;SDS011;57391;51.306;22.680;2023-05-29T06:12:37;7.10;;;2.20;;
70049;SDS011;57391;51.306;22.680;2023-05-29T06:15:13;5.10;;;2.30;;
70049;SDS011;57391;51.306;22.680;2023-05-29T06:17:41;4.80;;;2.30;;
70049;SDS011;57391;51.306;22.680;2023-05-29T06:20:09;4.40;;;2.20;;
70049;SDS011;57391;51.306;22.680;2023-05-29T06:22:37;4.60;;;2.40;;
70049;SDS011;57391;51.306;22.680;2023-05-29T06:25:04;7.10;;;2.70;;
70049;SDS011;57391;51.306;22.680;2023-05-29T06:27:33;6.00;;;2.30;;
70049;SDS011;57391;51.306;22.680;2023-05-29T06:30:00;6.30;;;2.30;;
70049;SDS011;57391;51.306;22.680;2023-05-29T06:32:29;6.70;;;2.60;;
70049;SDS011;57391;51.306;22.680;2023-05-29T06:34:57;7.60;;;2.40;;
70049;SDS011;57391;51.306;22.680;2023-05-29T06:37:25;6.80;;;2.10;;
70049;SDS011;57391;51.306;22.680;2023-05-29T06:39:52;4.50;;;1.90;;
70049;SDS011;57391;51.306;22.680;2023-05-29T06:42:19;8.10;;;2.20;;
70049;SDS011;57391;51.306;22.680;2023-05-29T06:44:53;4.30;;;2.10;;
70049;SDS011;57391;51.306;22.680;2023-05-29T06:47:21;6.50;;;2.10;;
70049;SDS011;57391;51.306;22.680;2023-05-29T06:49:48;3.90;;;2.10;;
70049;SDS011;57391;51.306;22.680;2023-05-29T06:52:15;5.10;;;1.80;;
70049;SDS011;57391;51.306;22.680;2023-05-29T06:55:03;5.10;;;2.10;;
70049;SDS011;57391;51.306;22.680;2023-05-29T06:57:30;3.50;;;1.90;;
70049;SDS011;57391;51.306;22.680;2023-05-29T06:59:58;8.10;;;2.10;;
70049;SDS011;57391;51.306;22.680;2023-05-29T07:02:25;5.60;;;2.00;;
70049;SDS011;57391;51.306;22.680;2023-05-29T07:04:56;4.50;;;2.00;;
70049;SDS011;57391;51.306;22.680;2023-05-29T07:07:25;5.40;;;2.20;;
70049;SDS011;57391;51.306;22.680;2023-05-29T07:09:52;5.50;;;2.30;;
70049;SDS011;57391;51.306;22.680;2023-05-29T07:12:21;5.30;;;2.10;;
70049;SDS011;57391;51.306;22.680;2023-05-29T07:14:49;3.50;;;1.90;;
70049;SDS011;57391;51.306;22.680;2023-05-29T07:17:17;6.00;;;1.90;;
70049;SDS011;57391;51.306;22.680;2023-05-29T07:19:46;3.50;;;1.90;;
70049;SDS011;57391;51.306;22.680;2023-05-29T07:22:13;4.10;;;2.00;;
70049;SDS011;57391;51.306;22.680;2023-05-29T07:24:41;4.20;;;1.90;;
70049;SDS011;57391;51.306;22.680;2023-05-29T07:27:08;3.60;;;1.70;;
70049;SDS011;57391;51.306;22.680;2023-05-29T07:29:35;2.70;;;1.60;;
70049;SDS011;57391;51.306;22.680;2023-05-29T07:32:03;3.00;;;1.90;;
70049;SDS011;57391;51.306;22.680;2023-05-29T07:34:31;3.10;;;1.70;;
70049;SDS011;57391;51.306;22.680;2023-05-29T07:37:06;4.70;;;2.00;;
70049;SDS011;57391;51.306;22.680;2023-05-29T07:39:36;3.40;;;1.80;;
70049;SDS011;57391;51.306;22.680;2023-05-29T07:42:11;5.80;;;1.80;;
70049;SDS011;57391;51.306;22.680;2023-05-29T07:44:39;4.40;;;2.10;;
70049;SDS011;57391;51.306;22.680;2023-05-29T07:47:09;4.60;;;2.00;;
70049;SDS011;57391;51.306;22.680;2023-05-29T07:49:41;3.00;;;1.60;;
70049;SDS011;57391;51.306;22.680;2023-05-29T07:52:10;4.10;;;1.90;;
70049;SDS011;57391;51.306;22.680;2023-05-29T07:54:37;3.70;;;2.00;;
70049;SDS011;57391;51.306;22.680;2023-05-29T07:57:08;4.00;;;2.00;;
70049;SDS011;57391;51.306;22.680;2023-05-29T07:59:40;3.40;;;1.80;;
70049;SDS011;57391;51.306;22.680;2023-05-29T08:02:08;4.50;;;1.70;;
70049;SDS011;57391;51.306;22.680;2023-05-29T08:04:44;3.40;;;1.60;;
70049;SDS011;57391;51.306;22.680;2023-05-29T08:07:11;3.70;;;1.80;;
70049;SDS011;57391;51.306;22.680;2023-05-29T08:09:39;3.20;;;1.80;;
70049;SDS011;57391;51.306;22.680;2023-05-29T08:12:06;3.10;;;1.90;;
70049;SDS011;57391;51.306;22.680;2023-05-29T08:14:33;4.90;;;1.80;;
70049;SDS011;57391;51.306;22.680;2023-05-29T08:17:02;5.90;;;2.00;;
70049;SDS011;57391;51.306;22.680;2023-05-29T08:19:30;5.60;;;1.90;;
70049;SDS011;57391;51.306;22.680;2023-05-29T08:21:57;6.80;;;2.00;;
70049;SDS011;57391;51.306;22.680;2023-05-29T08:24:24;8.00;;;2.20;;
70049;SDS011;57391;51.306;22.680;2023-05-29T08:26:51;4.30;;;1.60;;
70049;SDS011;57391;51.306;22.680;2023-05-29T08:29:19;5.10;;;2.00;;
70049;SDS011;57391;51.306;22.680;2023-05-29T08:31:46;3.80;;;1.90;;
70049;SDS011;57391;51.306;22.680;2023-05-29T08:34:14;5.30;;;2.00;;
70049;SDS011;57391;51.306;22.680;2023-05-29T08:36:41;5.20;;;2.10;;
70049;SDS011;57391;51.306;22.680;2023-05-29T08:39:09;5.90;;;1.90;;
70049;SDS011;57391;51.306;22.680;2023-05-29T08:41:51;4.90;;;1.90;;
70049;SDS011;57391;51.306;22.680;2023-05-29T08:44:29;5.50;;;1.50;;
70049;SDS011;57391;51.306;22.680;2023-05-29T08:47:02;3.10;;;1.70;;
70049;SDS011;57391;51.306;22.680;2023-05-29T08:49:41;4.90;;;1.60;;
70049;SDS011;57391;51.306;22.680;2023-05-29T08:52:19;4.40;;;1.90;;
70049;SDS011;57391;51.306;22.680;2023-05-29T08:54:48;7.30;;;1.80;;
70049;SDS011;57391;51.306;22.680;2023-05-29T08:57:17;3.10;;;1.70;;
70049;SDS011;57391;51.306;22.680;2023-05-29T08:59:45;3.20;;;1.70;;
70049;SDS011;57391;51.306;22.680;2023-05-29T09:02:16;4.70;;;1.80;;
70049;SDS011;57391;51.306;22.680;2023-05-29T09:04:43;3.50;;;1.70;;
70049;SDS011;57391;51.306;22.680;2023-05-29T09:07:19;4.60;;;2.10;;
70049;SDS011;57391;51.306;22.680;2023-05-29T09:09:48;4.70;;;1.70;;
70049;SDS011;57391;51.306;22.680;2023-05-29T09:12:16;4.10;;;1.90;;
70049;SDS011;57391;51.306;22.680;2023-05-29T09:14:44;5.60;;;1.80;;
70049;SDS011;57391;51.306;22.680;2023-05-29T09:17:13;4.70;;;1.70;;
70049;SDS011;57391;51.306;22.680;2023-05-29T09:19:42;3.30;;;1.70;;
70049;SDS011;57391;51.306;22.680;2023-05-29T09:22:13;4.10;;;1.60;;
70049;SDS011;57391;51.306;22.680;2023-05-29T09:24:45;4.50;;;1.90;;
70049;SDS011;57391;51.306;22.680;2023-05-29T09:27:14;5.60;;;1.50;;
70049;SDS011;57391;51.306;22.680;2023-05-29T09:29:42;3.70;;;1.70;;
70049;SDS011;57391;51.306;22.680;2023-05-29T09:32:13;4.10;;;1.80;;
70049;SDS011;57391;51.306;22.680;2023-05-29T09:34:43;4.40;;;1.70;;
70049;SDS011;57391;51.306;22.680;2023-05-29T09:37:12;6.20;;;1.70;;
70049;SDS011;57391;51.306;22.680;2023-05-29T09:39:47;3.40;;;1.80;;
70049;SDS011;57391;51.306;22.680;2023-05-29T09:42:15;3.20;;;1.60;;
70049;SDS011;57391;51.306;22.680;2023-05-29T09:44:45;4.10;;;1.80;;
70049;SDS011;57391;51.306;22.680;2023-05-29T09:47:17;5.60;;;1.70;;
70049;SDS011;57391;51.306;22.680;2023-05-29T09:49:45;4.80;;;1.90;;
70049;SDS011;57391;51.306;22.680;2023-05-29T09:52:13;3.70;;;1.80;;
70049;SDS011;57391;51.306;22.680;2023-05-29T09:54:43;5.50;;;1.80;;
70049;SDS011;57391;51.306;22.680;2023-05-29T09:57:14;3.90;;;1.70;;
70049;SDS011;57391;51.306;22.680;2023-05-29T09:59:44;3.20;;;1.60;;
70049;SDS011;57391;51.306;22.680;2023-05-29T10:02:14;4.40;;;1.80;;
70049;SDS011;57391;51.306;22.680;2023-05-29T10:04:42;5.50;;;1.80;;
70049;SDS011;57391;51.306;22.680;2023-05-29T10:07:25;4.10;;;1.60;;
70049;SDS011;57391;51.306;22.680;2023-05-29T10:10:00;4.70;;;1.90;;
70049;SDS011;57391;51.306;22.680;2023-05-29T10:12:31;3.50;;;1.60;;
70049;SDS011;57391;51.306;22.680;2023-05-29T10:15:07;3.90;;;1.80;;
70049;SDS011;57391;51.306;22.680;2023-05-29T10:18:02;5.90;;;1.90;;
70049;SDS011;57391;51.306;22.680;2023-05-29T10:20:36;4.00;;;1.70;;
70049;SDS011;57391;51.306;22.680;2023-05-29T10:23:06;4.20;;;1.80;;
70049;SDS011;57391;51.306;22.680;2023-05-29T10:25:36;4.90;;;1.80;;
70049;SDS011;57391;51.306;22.680;2023-05-29T10:28:04;3.50;;;1.90;;
70049;SDS011;57391;51.306;22.680;2023-05-29T10:30:41;4.80;;;1.90;;
70049;SDS011;57391;51.306;22.680;2023-05-29T10:33:29;5.00;;;1.80;;
70049;SDS011;57391;51.306;22.680;2023-05-29T10:36:18;6.80;;;1.70;;
70049;SDS011;57391;51.306;22.680;2023-05-29T10:38:49;3.30;;;1.60;;
70049;SDS011;57391;51.306;22.680;2023-05-29T10:43:57;6.10;;;1.80;;
70049;SDS011;57391;51.306;22.680;2023-05-29T10:49:17;3.00;;;1.60;;
70049;SDS011;57391;51.306;22.680;2023-05-29T10:51:46;4.30;;;1.80;;
70049;SDS011;57391;51.306;22.680;2023-05-29T10:54:15;4.80;;;1.70;;
70049;SDS011;57391;51.306;22.680;2023-05-29T10:56:44;5.60;;;2.00;;
70049;SDS011;57391;51.306;22.680;2023-05-29T10:59:19;3.90;;;1.60;;
70049;SDS011;57391;51.306;22.680;2023-05-29T11:01:46;4.00;;;1.80;;
70049;SDS011;57391;51.306;22.680;2023-05-29T11:06:53;4.80;;;1.90;;
70049;SDS011;57391;51.306;22.680;2023-05-29T11:12:15;4.70;;;1.60;;
70049;SDS011;57391;51.306;22.680;2023-05-29T11:15:00;3.70;;;1.70;;
70049;SDS011;57391;51.306;22.680;2023-05-29T11:17:43;5.40;;;2.10;;
70049;SDS011;57391;51.306;22.680;2023-05-29T11:25:28;3.60;;;1.70;;
70049;SDS011;57391;51.306;22.680;2023-05-29T11:27:55;5.70;;;1.80;;
70049;SDS011;57391;51.306;22.680;2023-05-29T11:30:23;5.20;;;1.80;;
70049;SDS011;57391;51.306;22.680;2023-05-29T11:32:52;3.90;;;2.00;;
70049;SDS011;57391;51.306;22.680;2023-05-29T11:35:21;4.20;;;1.70;;
70049;SDS011;57391;51.306;22.680;2023-05-29T11:37:49;7.50;;;2.00;;
70049;SDS011;57391;51.306;22.680;2023-05-29T11:40:18;4.20;;;1.90;;
70049;SDS011;57391;51.306;22.680;2023-05-29T11:42:46;4.40;;;1.80;;
70049;SDS011;57391;51.306;22.680;2023-05-29T11:45:21;6.10;;;1.70;;
70049;SDS011;57391;51.306;22.680;2023-05-29T11:48:02;4.00;;;1.80;;
70049;SDS011;57391;51.306;22.680;2023-05-29T11:50:32;4.40;;;1.70;;
70049;SDS011;57391;51.306;22.680;2023-05-29T11:53:00;4.50;;;1.90;;
70049;SDS011;57391;51.306;22.680;2023-05-29T11:55:27;6.00;;;1.90;;
70049;SDS011;57391;51.306;22.680;2023-05-29T11:58:02;3.80;;;2.20;;
70049;SDS011;57391;51.306;22.680;2023-05-29T12:00:33;5.20;;;2.10;;
70049;SDS011;57391;51.306;22.680;2023-05-29T12:03:04;4.40;;;2.00;;
70049;SDS011;57391;51.306;22.680;2023-05-29T12:05:44;5.40;;;1.80;;
70049;SDS011;57391;51.306;22.680;2023-05-29T12:08:13;5.40;;;1.90;;
70049;SDS011;57391;51.306;22.680;2023-05-29T12:10:48;6.50;;;2.00;;
70049;SDS011;57391;51.306;22.680;2023-05-29T12:13:19;4.50;;;1.90;;
70049;SDS011;57391;51.306;22.680;2023-05-29T12:15:48;5.30;;;2.10;;
70049;SDS011;57391;51.306;22.680;2023-05-29T12:18:18;4.20;;;2.10;;
70049;SDS011;57391;51.306;22.680;2023-05-29T12:20:45;7.00;;;2.00;;
70049;SDS011;57391;51.306;22.680;2023-05-29T12:23:13;4.50;;;1.80;;
70049;SDS011;57391;51.306;22.680;2023-05-29T12:25:41;5.50;;;2.00;;
70049;SDS011;57391;51.306;22.680;2023-05-29T12:28:16;6.60;;;2.10;;
70049;SDS011;57391;51.306;22.680;2023-05-29T12:30:45;6.30;;;2.00;;
70049;SDS011;57391;51.306;22.680;2023-05-29T12:33:27;4.40;;;1.90;;
70049;SDS011;57391;51.306;22.680;2023-05-29T12:36:06;6.10;;;2.00;;
70049;SDS011;57391;51.306;22.680;2023-05-29T12:38:51;3.80;;;2.10;;
70049;SDS011;57391;51.306;22.680;2023-05-29T12:41:28;3.70;;;1.90;;
70049;SDS011;57391;51.306;22.680;2023-05-29T12:44:04;4.10;;;2.10;;
70049;SDS011;57391;51.306;22.680;2023-05-29T12:46:41;4.90;;;1.70;;
70049;SDS011;57391;51.306;22.680;2023-05-29T12:49:16;4.30;;;1.80;;
70049;SDS011;57391;51.306;22.680;2023-05-29T12:51:50;4.10;;;2.00;;
70049;SDS011;57391;51.306;22.680;2023-05-29T12:54:19;6.10;;;2.20;;
70049;SDS011;57391;51.306;22.680;2023-05-29T12:56:46;4.50;;;1.80;;
70049;SDS011;57391;51.306;22.680;2023-05-29T12:59:13;6.20;;;2.10;;
70049;SDS011;57391;51.306;22.680;2023-05-29T13:01:44;5.90;;;2.10;;
70049;SDS011;57391;51.306;22.680;2023-05-29T13:04:12;7.00;;;1.80;;
70049;SDS011;57391;51.306;22.680;2023-05-29T13:06:39;4.80;;;1.90;;
70049;SDS011;57391;51.306;22.680;2023-05-29T13:09:06;4.10;;;1.80;;
70049;SDS011;57391;51.306;22.680;2023-05-29T13:11:34;7.60;;;2.10;;
70049;SDS011;57391;51.306;22.680;2023-05-29T13:14:01;5.70;;;2.30;;
70049;SDS011;57391;51.306;22.680;2023-05-29T13:16:28;5.20;;;1.80;;
70049;SDS011;57391;51.306;22.680;2023-05-29T13:18:56;5.30;;;1.80;;
70049;SDS011;57391;51.306;22.680;2023-05-29T13:21:23;3.50;;;1.80;;
70049;SDS011;57391;51.306;22.680;2023-05-29T13:23:50;7.40;;;1.90;;
70049;SDS011;57391;51.306;22.680;2023-05-29T13:26:17;3.90;;;1.90;;
70049;SDS011;57391;51.306;22.680;2023-05-29T13:28:44;4.60;;;2.10;;
70049;SDS011;57391;51.306;22.680;2023-05-29T13:31:11;4.10;;;2.00;;
70049;SDS011;57391;51.306;22.680;2023-05-29T13:33:39;5.50;;;2.20;;
70049;SDS011;57391;51.306;22.680;2023-05-29T13:36:06;5.50;;;1.90;;
70049;SDS011;57391;51.306;22.680;2023-05-29T13:38:33;5.30;;;2.10;;
70049;SDS011;57391;51.306;22.680;2023-05-29T13:41:01;4.10;;;1.80;;
70049;SDS011;57391;51.306;22.680;2023-05-29T13:43:27;4.70;;;2.10;;
70049;SDS011;57391;51.306;22.680;2023-05-29T13:45:55;4.50;;;1.90;;
70049;SDS011;57391;51.306;22.680;2023-05-29T13:48:21;5.40;;;2.20;;
70049;SDS011;57391;51.306;22.680;2023-05-29T13:50:49;8.70;;;2.20;;
70049;SDS011;57391;51.306;22.680;2023-05-29T13:53:16;5.80;;;1.90;;
70049;SDS011;57391;51.306;22.680;2023-05-29T13:55:43;5.40;;;2.10;;
70049;SDS011;57391;51.306;22.680;2023-05-29T13:58:10;5.50;;;2.00;;
70049;SDS011;57391;51.306;22.680;2023-05-29T14:00:37;5.60;;;2.00;;
70049;SDS011;57391;51.306;22.680;2023-05-29T14:03:04;6.50;;;1.90;;
70049;SDS011;57391;51.306;22.680;2023-05-29T14:05:31;4.00;;;1.80;;
70049;SDS011;57391;51.306;22.680;2023-05-29T14:07:58;5.80;;;2.10;;
70049;SDS011;57391;51.306;22.680;2023-05-29T14:10:25;4.40;;;1.80;;
70049;SDS011;57391;51.306;22.680;2023-05-29T14:12:52;4.80;;;2.00;;
70049;SDS011;57391;51.306;22.680;2023-05-29T14:15:19;4.20;;;1.90;;
70049;SDS011;57391;51.306;22.680;2023-05-29T14:17:46;5.60;;;2.20;;
70049;SDS011;57391;51.306;22.680;2023-05-29T14:20:14;5.60;;;2.10;;
70049;SDS011;57391;51.306;22.680;2023-05-29T14:22:41;4.90;;;1.80;;
70049;SDS011;57391;51.306;22.680;2023-05-29T14:25:08;4.10;;;2.10;;
70049;SDS011;57391;51.306;22.680;2023-05-29T14:27:36;5.70;;;1.90;;
70049;SDS011;57391;51.306;22.680;2023-05-29T14:30:03;4.60;;;1.90;;
70049;SDS011;57391;51.306;22.680;2023-05-29T14:32:31;6.70;;;2.00;;
70049;SDS011;57391;51.306;22.680;2023-05-29T14:34:59;4.20;;;1.80;;
70049;SDS011;57391;51.306;22.680;2023-05-29T14:37:27;5.70;;;1.70;;
70049;SDS011;57391;51.306;22.680;2023-05-29T14:39:54;3.80;;;1.90;;
70049;SDS011;57391;51.306;22.680;2023-05-29T14:42:22;5.20;;;1.90;;
70049;SDS011;57391;51.306;22.680;2023-05-29T14:44:48;6.00;;;1.90;;
70049;SDS011;57391;51.306;22.680;2023-05-29T14:47:16;4.60;;;1.90;;
70049;SDS011;57391;51.306;22.680;2023-05-29T14:49:45;3.90;;;1.70;;
70049;SDS011;57391;51.306;22.680;2023-05-29T14:52:12;6.00;;;1.80;;
70049;SDS011;57391;51.306;22.680;2023-05-29T14:54:40;3.50;;;1.70;;
70049;SDS011;57391;51.306;22.680;2023-05-29T14:57:07;5.40;;;1.90;;
70049;SDS011;57391;51.306;22.680;2023-05-29T14:59:36;6.40;;;2.10;;
70049;SDS011;57391;51.306;22.680;2023-05-29T15:02:03;6.80;;;2.10;;
70049;SDS011;57391;51.306;22.680;2023-05-29T15:04:31;5.30;;;1.70;;
70049;SDS011;57391;51.306;22.680;2023-05-29T15:06:58;6.80;;;1.90;;